createdAt,value
2022-12-14T00:02:15.260Z,100069.25
2022-12-14T00:05:00.646Z,100068.19
2022-12-14T00:07:45.975Z,100065.72
2022-12-14T00:10:35.314Z,100047.28
2022-12-14T00:13:20.531Z,100055.63
2022-12-14T00:16:17.344Z,100054.75
2022-12-14T00:19:05.265Z,100037.94
2022-12-14T00:21:51.653Z,100052.88
2022-12-14T00:24:38.707Z,100055.19
2022-12-14T00:27:23.696Z,100055.75
2022-12-14T00:30:10.515Z,100025.94
2022-12-14T00:32:56.806Z,100052.25
2022-12-14T00:35:42.170Z,100028.50
2022-12-14T00:38:28.480Z,100043.69
2022-12-14T00:41:13.874Z,100038.38
2022-12-14T00:43:59.435Z,100050.34
2022-12-14T00:46:44.711Z,100050.34
2022-12-14T00:49:30.050Z,100051.16
2022-12-14T00:52:15.106Z,100024.66
2022-12-14T00:55:00.427Z,100027.78
2022-12-14T00:57:45.820Z,100053.47
2022-12-14T01:00:31.675Z,100026.69
2022-12-14T01:03:16.939Z,100039.84
2022-12-14T01:06:02.657Z,100029.97
2022-12-14T01:08:49.031Z,100036.13
2022-12-14T01:11:34.110Z,100028.47
2022-12-14T01:14:21.243Z,99986.91
2022-12-14T01:17:07.062Z,100000.16
2022-12-14T01:19:52.063Z,100028.84
2022-12-14T01:22:37.948Z,100014.50
2022-12-14T01:25:23.241Z,100021.41
2022-12-14T01:28:08.487Z,100005.81
2022-12-14T01:30:53.336Z,100014.38
2022-12-14T01:33:38.780Z,100014.97
2022-12-14T01:36:26.585Z,100023.34
2022-12-14T01:39:13.914Z,100013.53
2022-12-14T01:41:59.270Z,100006.00
2022-12-14T01:44:44.348Z,100030.66
2022-12-14T01:47:37.744Z,100020.59
2022-12-14T01:50:37.785Z,100031.66
2022-12-14T01:53:23.670Z,100009.44
2022-12-14T01:56:09.111Z,99997.16
2022-12-14T01:58:57.530Z,100016.00
2022-12-14T02:01:43.080Z,100029.31
2022-12-14T02:04:28.985Z,100015.59
2022-12-14T02:07:16.001Z,100029.06
2022-12-14T02:10:05.532Z,100023.91
2022-12-14T02:12:57.260Z,100025.38
2022-12-14T02:15:43.538Z,100025.69
2022-12-14T02:18:31.228Z,100021.94
2022-12-14T02:21:25.153Z,99980.69
2022-12-14T02:24:22.833Z,100019.97
2022-12-14T02:27:32.564Z,100022.94
2022-12-14T02:30:27.037Z,100021.97
2022-12-14T02:33:11.859Z,100033.50
2022-12-14T02:36:00.297Z,100025.22
2022-12-14T02:38:59.270Z,100022.44
2022-12-14T02:42:04.346Z,100025.28
2022-12-14T02:45:06.174Z,100022.22
2022-12-14T02:47:58.980Z,100029.06
2022-12-14T02:50:53.725Z,100021.28
2022-12-14T02:53:53.832Z,100017.00
2022-12-14T02:56:50.662Z,100021.00
2022-12-14T02:59:36.340Z,100016.66
2022-12-14T03:02:21.563Z,100010.50
2022-12-14T03:05:07.166Z,100006.59
2022-12-14T03:08:03.879Z,100025.88
2022-12-14T03:10:55.246Z,100022.72
2022-12-14T03:13:49.834Z,100016.75
2022-12-14T03:16:44.806Z,100020.19
2022-12-14T03:19:38.904Z,100017.00
2022-12-14T03:22:28.764Z,100015.53
2022-12-14T03:25:19.517Z,100004.00
2022-12-14T03:28:14.560Z,100019.41
2022-12-14T03:31:06.821Z,100020.31
2022-12-14T03:33:54.948Z,100004.09
2022-12-14T03:37:04.263Z,100000.72
2022-12-14T03:39:49.620Z,100001.50
2022-12-14T03:43:05.206Z,99998.19
2022-12-14T03:46:16.807Z,99994.50
2022-12-14T03:49:28.290Z,99988.78
2022-12-14T03:52:19.474Z,99994.47
2022-12-14T03:55:13.431Z,99999.44
2022-12-14T03:58:10.115Z,99994.66
2022-12-14T04:01:15.553Z,100000.03
2022-12-14T04:04:10.902Z,99986.75
2022-12-14T04:07:14.041Z,99986.13
2022-12-14T04:10:36.567Z,99976.13
2022-12-14T04:13:49.004Z,99992.91
2022-12-14T04:16:59.379Z,99991.19
2022-12-14T04:19:54.816Z,99987.97
2022-12-14T04:22:49.496Z,99972.97
2022-12-14T04:25:57.343Z,99991.66
2022-12-14T04:29:08.819Z,99998.31
2022-12-14T04:32:01.553Z,99988.31
2022-12-14T04:34:51.111Z,99999.38
2022-12-14T04:37:39.278Z,99961.13
2022-12-14T04:40:37.201Z,99982.22
2022-12-14T04:43:28.298Z,99986.34
2022-12-14T04:46:40.389Z,99993.94
2022-12-14T04:49:49.233Z,99999.09
2022-12-14T04:52:40.904Z,99956.22
2022-12-14T04:55:41.976Z,100000.16
2022-12-14T04:58:29.997Z,100001.13
2022-12-14T05:01:24.387Z,100002.66
2022-12-14T05:04:25.412Z,100003.44
2022-12-14T05:07:14.106Z,99992.31
2022-12-14T05:10:09.593Z,99992.94
2022-12-14T05:13:03.549Z,99994.69
2022-12-14T05:15:51.915Z,99991.06
2022-12-14T05:18:37.217Z,99990.53
2022-12-14T05:21:40.829Z,99970.00
2022-12-14T05:24:26.029Z,99947.00
2022-12-14T05:27:10.850Z,99968.97
2022-12-14T05:29:56.202Z,99974.34
2022-12-14T05:32:41.714Z,99984.47
2022-12-14T05:35:26.843Z,99983.78
2022-12-14T05:38:13.203Z,99974.28
2022-12-14T05:40:58.421Z,99986.25
2022-12-14T05:43:43.754Z,99979.84
2022-12-14T05:46:28.754Z,99961.63
2022-12-14T05:49:13.815Z,99987.22
2022-12-14T05:51:59.200Z,99964.69
2022-12-14T05:54:44.394Z,99983.84
2022-12-14T05:57:33.652Z,99973.38
2022-12-14T06:00:18.865Z,99991.63
2022-12-14T06:03:04.165Z,99992.44
2022-12-14T06:05:49.306Z,99987.28
2022-12-14T06:08:37.066Z,99992.09
2022-12-14T06:11:23.335Z,99991.38
2022-12-14T06:14:09.646Z,99999.09
2022-12-14T06:16:54.763Z,100007.44
2022-12-14T06:19:39.864Z,100003.88
2022-12-14T06:22:25.108Z,100007.28
2022-12-14T06:25:10.037Z,100007.53
2022-12-14T06:27:55.481Z,100014.03
2022-12-14T06:30:40.768Z,99986.94
2022-12-14T06:33:27.031Z,100010.47
2022-12-14T06:36:34.173Z,100008.78
2022-12-14T06:39:19.086Z,99998.19
2022-12-14T06:42:04.743Z,100008.03
2022-12-14T06:44:50.013Z,100010.38
2022-12-14T06:47:35.000Z,100018.13
2022-12-14T06:50:20.355Z,100004.91
2022-12-14T06:53:05.577Z,100019.31
2022-12-14T06:55:50.832Z,100022.78
2022-12-14T06:58:36.205Z,100016.94
2022-12-14T07:01:24.163Z,100020.47
2022-12-14T07:04:09.830Z,100021.31
2022-12-14T07:06:54.989Z,100012.91
2022-12-14T07:09:40.056Z,100038.34
2022-12-14T07:12:25.496Z,100016.41
2022-12-14T07:15:11.199Z,100025.88
2022-12-14T07:17:56.306Z,100026.81
2022-12-14T07:20:41.294Z,100053.03
2022-12-14T07:23:28.599Z,100046.09
2022-12-14T07:26:32.662Z,100026.66
2022-12-14T07:29:17.671Z,100031.06
2022-12-14T07:32:03.836Z,100055.56
2022-12-14T07:34:48.878Z,100055.94
2022-12-14T07:37:33.723Z,100051.72
2022-12-14T07:40:18.927Z,100056.38
2022-12-14T07:43:03.859Z,100041.28
2022-12-14T07:45:49.389Z,100050.31
2022-12-14T07:48:34.963Z,100058.03
2022-12-14T07:51:23.127Z,100057.13
2022-12-14T07:54:08.773Z,100064.78
2022-12-14T07:56:53.593Z,100052.31
2022-12-14T07:59:40.022Z,100056.13
2022-12-14T08:02:25.417Z,100068.69
2022-12-14T08:05:12.752Z,100088.22
2022-12-14T08:07:58.262Z,100080.50
2022-12-14T08:10:43.138Z,100071.59
2022-12-14T08:13:28.717Z,100087.03
2022-12-14T08:16:16.061Z,100093.09
2022-12-14T08:19:01.655Z,100095.38
2022-12-14T08:21:46.974Z,100101.38
2022-12-14T08:24:32.171Z,100097.31
2022-12-14T08:27:17.132Z,100103.09
2022-12-14T08:30:02.315Z,100111.56
2022-12-14T08:32:47.070Z,100118.13
2022-12-14T08:35:35.717Z,100116.06
2022-12-14T08:38:20.948Z,100122.03
2022-12-14T08:41:14.782Z,100122.50
2022-12-14T08:44:01.800Z,100121.66
2022-12-14T08:46:46.975Z,100129.06
2022-12-14T08:49:32.920Z,100142.72
2022-12-14T08:52:18.342Z,100135.81
2022-12-14T08:55:03.748Z,100128.44
2022-12-14T08:57:48.876Z,100120.88
2022-12-14T09:00:34.324Z,100134.19
2022-12-14T09:03:19.624Z,100139.91
2022-12-14T09:06:07.688Z,100136.53
2022-12-14T09:08:52.700Z,100128.66
2022-12-14T09:11:37.880Z,100112.38
2022-12-14T09:14:23.282Z,100139.63
2022-12-14T09:17:08.424Z,100146.53
2022-12-14T09:19:53.638Z,100154.28
2022-12-14T09:22:39.124Z,100127.09
2022-12-14T09:25:24.052Z,100146.28
2022-12-14T09:28:09.172Z,100154.84
2022-12-14T09:30:56.533Z,100155.41
2022-12-14T09:33:41.531Z,100146.03
2022-12-14T09:36:28.214Z,100179.59
2022-12-14T09:39:15.014Z,100170.69
2022-12-14T09:42:09.590Z,100182.44
2022-12-14T09:45:07.186Z,100174.50
2022-12-14T09:48:18.258Z,100159.28
2022-12-14T09:51:03.679Z,100164.09
2022-12-14T09:54:02.539Z,100176.28
2022-12-14T09:56:48.453Z,100192.00
2022-12-14T09:59:34.068Z,100191.84
2022-12-14T10:02:39.905Z,100175.97
2022-12-14T10:05:57.809Z,100166.59
2022-12-14T10:09:04.717Z,100205.75
2022-12-14T10:12:08.733Z,100205.75
2022-12-14T10:15:08.988Z,100209.28
2022-12-14T10:18:00.373Z,100200.78
2022-12-14T10:21:12.846Z,100208.94
2022-12-14T10:24:02.720Z,100198.94
2022-12-14T10:26:52.044Z,100207.22
2022-12-14T10:29:46.674Z,100202.31
2022-12-14T10:32:40.582Z,100183.88
2022-12-14T10:35:31.979Z,100198.78
2022-12-14T10:38:37.264Z,100163.31
2022-12-14T10:41:28.776Z,100198.41
2022-12-14T10:44:21.193Z,100198.91
2022-12-14T10:47:17.657Z,100197.59
2022-12-14T10:50:16.067Z,100196.47
2022-12-14T10:53:04.188Z,100195.38
2022-12-14T10:55:55.844Z,100204.41
2022-12-14T10:58:44.670Z,100190.03
2022-12-14T11:01:29.618Z,100211.53
2022-12-14T11:04:44.793Z,100200.34
2022-12-14T11:07:33.175Z,100179.63
2022-12-14T11:10:32.602Z,100183.44
2022-12-14T11:13:20.697Z,100198.75
2022-12-14T11:16:30.312Z,100179.69
2022-12-14T11:19:21.993Z,100196.25
2022-12-14T11:22:21.789Z,100196.34
2022-12-14T11:25:27.515Z,100196.81
2022-12-14T11:28:49.940Z,100177.16
2022-12-14T11:31:39.103Z,100192.75
2022-12-14T11:34:39.087Z,100184.78
2022-12-14T11:37:30.773Z,100192.25
2022-12-14T11:40:27.703Z,100162.81
2022-12-14T11:43:27.802Z,100195.31
2022-12-14T11:46:13.146Z,100192.88
2022-12-14T11:48:58.032Z,100205.72
2022-12-14T11:52:01.545Z,100194.91
2022-12-14T11:54:50.163Z,100206.81
2022-12-14T11:57:42.654Z,100200.63
2022-12-14T12:00:31.400Z,100208.31
2022-12-14T12:03:30.292Z,100217.16
2022-12-14T12:06:22.524Z,100199.94
2022-12-14T12:09:26.449Z,100199.91
2022-12-14T12:12:21.287Z,100209.66
2022-12-14T12:15:16.515Z,100205.09
2022-12-14T12:18:25.813Z,100186.25
2022-12-14T12:21:27.831Z,100220.38
2022-12-14T12:24:12.833Z,100208.56
2022-12-14T12:27:11.560Z,100200.31
2022-12-14T12:30:28.622Z,100207.38
2022-12-14T12:33:28.862Z,100204.44
2022-12-14T12:36:22.024Z,100207.81
2022-12-14T12:39:16.139Z,100212.97
2022-12-14T12:42:26.814Z,100209.75
2022-12-14T12:45:30.740Z,100193.25
2022-12-14T12:48:21.677Z,100212.41
2022-12-14T12:51:14.535Z,100209.00
2022-12-14T12:54:12.003Z,100197.84
2022-12-14T12:57:00.477Z,100194.22
2022-12-14T12:59:55.855Z,100221.78
2022-12-14T13:02:51.661Z,100223.75
2022-12-14T13:05:48.404Z,100222.22
2022-12-14T13:08:39.306Z,100227.00
2022-12-14T13:11:35.135Z,100214.78
2022-12-14T13:14:32.481Z,100209.28
2022-12-14T13:17:33.626Z,100232.44
2022-12-14T13:20:27.113Z,100226.41
2022-12-14T13:23:43.473Z,100230.28
2022-12-14T13:26:56.525Z,100224.47
2022-12-14T13:30:01.865Z,100229.41
2022-12-14T13:33:05.523Z,100237.00
2022-12-14T13:35:53.762Z,100244.72
2022-12-14T13:39:17.699Z,100241.44
2022-12-14T13:42:37.719Z,100243.88
2022-12-14T13:45:27.907Z,100241.94
2022-12-14T13:48:23.604Z,100243.09
2022-12-14T13:51:18.967Z,100243.59
2022-12-14T13:54:07.797Z,100243.03
2022-12-14T13:57:24.318Z,100243.53
2022-12-14T14:00:44.587Z,100247.28
2022-12-14T14:03:32.741Z,100246.19
2022-12-14T14:06:22.344Z,100242.53
2022-12-14T14:09:25.884Z,100244.47
2022-12-14T14:12:32.265Z,100254.09
2022-12-14T14:15:29.925Z,100250.13
2022-12-14T14:18:20.572Z,100250.31
2022-12-14T14:21:30.708Z,100258.53
2022-12-14T14:24:16.831Z,100256.72
2022-12-14T14:27:19.013Z,100268.22
2022-12-14T14:30:35.684Z,100266.94
2022-12-14T14:33:45.988Z,100267.94
2022-12-14T14:36:35.739Z,100267.56
2022-12-14T14:42:47.932Z,100288.69
2022-12-14T14:45:41.095Z,100283.78
2022-12-14T14:48:44.356Z,100286.91
2022-12-14T14:51:34.324Z,100269.25
2022-12-14T14:58:05.187Z,100277.81
2022-12-14T15:01:16.283Z,100287.13
2022-12-14T15:04:06.121Z,100292.59
2022-12-14T15:06:57.298Z,100293.91
2022-12-14T15:10:04.294Z,100286.69
2022-12-14T15:12:53.044Z,100278.50
2022-12-14T15:15:44.193Z,100300.63
2022-12-14T15:18:31.868Z,100297.25
2022-12-14T15:21:18.735Z,100306.94
2022-12-14T15:24:04.134Z,100306.31
2022-12-14T15:26:49.137Z,100294.69
2022-12-14T15:29:34.523Z,100304.56
2022-12-14T15:32:23.778Z,100321.19
2022-12-14T15:35:15.442Z,100305.09
2022-12-14T15:38:06.294Z,100325.78
2022-12-14T15:40:57.354Z,100333.06
2022-12-14T15:43:47.696Z,100327.81
2022-12-14T15:46:34.514Z,100341.56
2022-12-14T15:49:23.145Z,100340.03
2022-12-14T15:52:10.634Z,100352.09
2022-12-14T15:54:56.255Z,100354.16
2022-12-14T15:57:41.307Z,100345.88
2022-12-14T16:00:26.588Z,100342.63
2022-12-14T16:03:30.624Z,100363.97
2022-12-14T16:06:17.361Z,100375.53
2022-12-14T16:09:28.458Z,100361.13
2022-12-14T16:12:24.538Z,100374.16
2022-12-14T16:15:22.416Z,100357.97
2022-12-14T16:18:13.565Z,100370.16
2022-12-14T16:21:01.276Z,100370.91
2022-12-14T16:23:46.642Z,100373.13
2022-12-14T16:26:37.614Z,100384.59
2022-12-14T16:29:27.678Z,100387.25
2022-12-14T16:32:16.417Z,100397.16
2022-12-14T16:35:02.712Z,100397.84
2022-12-14T16:37:51.296Z,100386.00
2022-12-14T16:40:40.315Z,100398.88
2022-12-14T16:43:27.893Z,100386.91
2022-12-14T16:46:15.726Z,100395.13
2022-12-14T16:49:22.310Z,100397.50
2022-12-14T16:52:20.051Z,100397.31
2022-12-14T16:55:12.030Z,100401.78
2022-12-14T16:58:01.399Z,100381.63
2022-12-14T17:00:58.311Z,100400.75
2022-12-14T17:03:44.001Z,100410.25
2022-12-14T17:06:39.091Z,100409.53
2022-12-14T17:09:27.482Z,100407.75
2022-12-14T17:12:17.747Z,100417.03
2022-12-14T17:15:03.228Z,100416.25
2022-12-14T17:17:51.655Z,100423.75
2022-12-14T17:20:37.213Z,100396.88
2022-12-14T17:23:23.057Z,100394.53
2022-12-14T17:26:18.566Z,100409.69
2022-12-14T17:29:03.951Z,100392.75
2022-12-14T17:31:51.754Z,100397.72
2022-12-14T17:34:36.995Z,100403.69
2022-12-14T17:37:24.477Z,100410.56
2022-12-14T17:40:10.007Z,100404.47
2022-12-14T17:42:57.465Z,100415.66
2022-12-14T17:45:42.907Z,100427.94
2022-12-14T17:48:28.720Z,100434.13
2022-12-14T17:51:25.575Z,100404.38
2022-12-14T17:54:19.007Z,100426.56
2022-12-14T17:57:07.354Z,100429.19
2022-12-14T18:00:11.745Z,100435.81
2022-12-14T18:02:57.440Z,100433.41
2022-12-14T18:05:48.414Z,100437.44
2022-12-14T18:08:34.311Z,100437.22
2022-12-14T18:11:22.500Z,100427.84
2022-12-14T18:14:09.094Z,100443.22
2022-12-14T18:16:55.611Z,100438.94
2022-12-14T18:19:40.924Z,100450.59
2022-12-14T18:22:26.125Z,100449.00
2022-12-14T18:25:27.058Z,100426.19
2022-12-14T18:28:12.305Z,100452.31
2022-12-14T18:31:02.156Z,100457.47
2022-12-14T18:33:47.560Z,100431.91
2022-12-14T18:36:32.701Z,100452.81
2022-12-14T18:39:18.318Z,100457.16
2022-12-14T18:42:03.675Z,100445.97
2022-12-14T18:44:48.978Z,100449.94
2022-12-14T18:47:41.710Z,100458.38
2022-12-14T18:50:29.204Z,100458.06
2022-12-14T18:53:16.778Z,100456.41
2022-12-14T18:56:03.761Z,100459.78
2022-12-14T18:58:50.090Z,100447.94
2022-12-14T19:01:35.307Z,100450.81
2022-12-14T19:04:22.336Z,100427.13
2022-12-14T19:07:07.309Z,100468.59
2022-12-14T19:09:52.658Z,100451.53
2022-12-14T19:12:37.860Z,100447.28
2022-12-14T19:15:26.510Z,100462.34
2022-12-14T19:18:11.985Z,100470.97
2022-12-14T19:20:57.088Z,100470.84
2022-12-14T19:23:42.081Z,100457.38
2022-12-14T19:26:28.999Z,100464.25
2022-12-14T19:29:14.098Z,100483.88
2022-12-14T19:32:04.828Z,100489.97
2022-12-14T19:34:50.900Z,100485.41
2022-12-14T19:37:36.183Z,100484.72
2022-12-14T19:40:21.498Z,100481.50
2022-12-14T19:43:06.609Z,100473.81
2022-12-14T19:45:52.210Z,100476.59
2022-12-14T19:48:38.167Z,100489.00
2022-12-14T19:51:23.621Z,100472.78
2022-12-14T19:54:09.118Z,100468.75
2022-12-14T19:56:54.328Z,100490.75
2022-12-14T19:59:39.571Z,100500.00
2022-12-14T20:02:25.151Z,100503.53
2022-12-14T20:05:10.687Z,100495.13
2022-12-14T20:07:55.945Z,100501.75
2022-12-14T20:10:40.846Z,100499.47
2022-12-14T20:13:27.385Z,100496.78
2022-12-14T20:16:17.079Z,100499.31
2022-12-14T20:19:03.696Z,100496.66
2022-12-14T20:21:48.976Z,100496.94
2022-12-14T20:24:35.781Z,100513.09
2022-12-14T20:27:20.792Z,100503.47
2022-12-14T20:30:06.741Z,100485.69
2022-12-14T20:32:51.754Z,100486.06
2022-12-14T20:35:36.899Z,100508.84
2022-12-14T20:38:22.135Z,100515.34
2022-12-14T20:41:10.170Z,100517.28
2022-12-14T20:43:55.835Z,100508.94
2022-12-14T20:46:44.676Z,100513.09
2022-12-14T20:49:32.791Z,100502.34
2022-12-14T20:52:17.739Z,100529.59
2022-12-14T20:55:03.140Z,100533.22
2022-12-14T20:57:48.305Z,100536.75
2022-12-14T21:00:33.822Z,100532.50
2022-12-14T21:03:19.076Z,100541.94
2022-12-14T21:06:04.379Z,100532.47
2022-12-14T21:09:02.279Z,100525.06
2022-12-14T21:12:08.795Z,100548.03
2022-12-14T21:14:56.285Z,100543.03
2022-12-14T21:17:41.431Z,100544.91
2022-12-14T21:20:26.596Z,100543.88
2022-12-14T21:23:11.740Z,100520.19
2022-12-14T21:26:02.161Z,100521.09
2022-12-14T21:28:47.401Z,100544.41
2022-12-14T21:31:33.250Z,100545.28
2022-12-14T21:34:20.315Z,100542.72
2022-12-14T21:37:05.663Z,100536.69
2022-12-14T21:39:54.256Z,100536.81
2022-12-14T21:42:40.968Z,100551.34
2022-12-14T21:45:26.268Z,100553.22
2022-12-14T21:48:11.329Z,100557.81
2022-12-14T21:50:56.264Z,100549.03
2022-12-14T21:53:58.474Z,100547.44
2022-12-14T21:57:02.179Z,100533.72
2022-12-14T21:59:47.353Z,100528.09
2022-12-14T22:02:32.689Z,100535.63
2022-12-14T22:05:18.191Z,100507.63
2022-12-14T22:08:03.329Z,100542.34
2022-12-14T22:10:48.636Z,100550.28
2022-12-14T22:13:33.856Z,100550.34
2022-12-14T22:16:18.916Z,100547.69
2022-12-14T22:19:04.037Z,100530.75
2022-12-14T22:21:50.996Z,100548.50
2022-12-14T22:24:36.310Z,100527.38
2022-12-14T22:27:21.548Z,100550.28
2022-12-14T22:30:08.604Z,100539.56
2022-12-14T22:32:53.539Z,100553.19
2022-12-14T22:35:38.510Z,100535.31
2022-12-14T22:38:25.118Z,100552.94
2022-12-14T22:41:14.187Z,100552.41
2022-12-14T22:43:59.546Z,100554.59
2022-12-14T22:46:44.994Z,100543.00
2022-12-14T22:49:30.194Z,100550.47
2022-12-14T22:52:17.523Z,100575.09
2022-12-14T22:55:07.727Z,100573.28
2022-12-14T22:57:54.023Z,100577.75
2022-12-14T23:00:38.979Z,100564.72
2022-12-14T23:03:25.428Z,100578.03
2022-12-14T23:06:15.574Z,100568.91
2022-12-14T23:09:19.336Z,100581.94
2022-12-14T23:12:23.120Z,100584.06
2022-12-14T23:15:28.143Z,100585.31
2022-12-14T23:18:31.927Z,100565.00
2022-12-14T23:21:35.686Z,100579.28
2022-12-14T23:24:39.507Z,100580.09
2022-12-14T23:27:43.355Z,100591.09
2022-12-14T23:30:47.249Z,100573.69
2022-12-14T23:33:51.595Z,100595.25
2022-12-14T23:36:55.407Z,100591.38
2022-12-14T23:39:59.199Z,100596.00
2022-12-14T23:43:03.053Z,100578.94
2022-12-14T23:46:06.777Z,100592.63
2022-12-14T23:49:15.709Z,100564.38
2022-12-14T23:52:20.119Z,100574.75
2022-12-14T23:55:24.643Z,100562.94
2022-12-14T23:58:28.616Z,100575.66
